createdAt,value
2022-10-16T00:01:15.767Z,16.00
2022-10-16T00:03:43.718Z,16.00
2022-10-16T00:06:11.690Z,16.00
2022-10-16T00:08:39.469Z,16.00
2022-10-16T00:11:16.714Z,16.00
2022-10-16T00:13:45.728Z,16.10
2022-10-16T00:16:14.143Z,16.10
2022-10-16T00:18:41.889Z,16.20
2022-10-16T00:21:20.423Z,16.20
2022-10-16T00:23:47.401Z,16.10
2022-10-16T00:26:16.794Z,16.20
2022-10-16T00:28:43.742Z,16.20
2022-10-16T00:31:12.594Z,16.20
2022-10-16T00:33:40.793Z,16.20
2022-10-16T00:36:10.579Z,16.20
2022-10-16T00:38:38.701Z,16.10
2022-10-16T00:41:11.503Z,16.10
2022-10-16T00:43:53.365Z,16.10
2022-10-16T00:46:21.539Z,16.20
2022-10-16T00:49:01.774Z,16.10
2022-10-16T00:51:41.217Z,16.10
2022-10-16T00:54:18.449Z,16.10
2022-10-16T00:56:46.884Z,16.10
2022-10-16T00:59:21.628Z,16.00
2022-10-16T01:01:48.628Z,16.00
2022-10-16T01:04:15.448Z,16.00
2022-10-16T01:07:02.422Z,15.90
2022-10-16T01:09:44.519Z,16.00
2022-10-16T01:12:38.534Z,16.10
2022-10-16T01:15:08.633Z,16.10
2022-10-16T01:17:38.203Z,16.10
2022-10-16T01:20:15.568Z,16.10
2022-10-16T01:23:27.121Z,16.10
2022-10-16T01:25:59.263Z,16.10
2022-10-16T01:28:33.521Z,16.10
2022-10-16T01:31:02.545Z,16.20
2022-10-16T01:33:43.437Z,16.20
2022-10-16T01:36:35.091Z,16.10
2022-10-16T01:39:03.421Z,16.10
2022-10-16T01:41:36.981Z,16.10
2022-10-16T01:44:20.968Z,16.10
2022-10-16T01:46:51.147Z,16.10
2022-10-16T01:49:19.568Z,16.10
2022-10-16T01:51:50.685Z,16.20
2022-10-16T01:54:21.051Z,16.10
2022-10-16T01:56:50.768Z,16.10
2022-10-16T01:59:21.452Z,16.10
2022-10-16T02:01:57.090Z,16.00
2022-10-16T02:04:34.025Z,16.00
2022-10-16T02:07:01.556Z,16.10
2022-10-16T02:09:28.366Z,16.10
2022-10-16T02:11:58.040Z,16.10
2022-10-16T02:14:25.767Z,16.10
2022-10-16T02:16:54.975Z,16.10
2022-10-16T02:19:22.838Z,16.10
2022-10-16T02:21:52.299Z,16.20
2022-10-16T02:24:31.630Z,16.20
2022-10-16T02:27:12.472Z,16.10
2022-10-16T02:29:50.972Z,16.20
2022-10-16T02:32:22.189Z,16.20
2022-10-16T02:34:50.379Z,16.20
2022-10-16T02:37:18.634Z,16.20
2022-10-16T02:39:45.544Z,16.20
2022-10-16T02:42:16.322Z,16.20
2022-10-16T02:44:43.104Z,16.20
2022-10-16T02:47:10.354Z,16.20
2022-10-16T02:49:37.072Z,16.00
2022-10-16T02:52:03.974Z,15.90
2022-10-16T02:54:30.644Z,15.90
2022-10-16T02:56:57.444Z,15.90
2022-10-16T02:59:24.405Z,15.80
2022-10-16T03:01:51.511Z,15.80
2022-10-16T03:04:18.304Z,15.80
2022-10-16T03:06:45.018Z,15.80
2022-10-16T03:09:11.805Z,15.80
2022-10-16T03:11:38.538Z,15.80
2022-10-16T03:14:05.234Z,15.80
2022-10-16T03:16:31.915Z,15.80
2022-10-16T03:18:58.641Z,15.90
2022-10-16T03:21:25.797Z,15.90
2022-10-16T03:23:52.564Z,16.00
2022-10-16T03:26:19.374Z,15.90
2022-10-16T03:28:46.158Z,15.90
2022-10-16T03:31:12.950Z,15.90
2022-10-16T03:33:39.647Z,15.90
2022-10-16T03:36:06.536Z,15.90
2022-10-16T03:38:33.875Z,15.80
2022-10-16T03:41:00.631Z,15.80
2022-10-16T03:43:27.450Z,15.80
2022-10-16T03:45:54.152Z,15.80
2022-10-16T03:48:21.089Z,15.80
2022-10-16T03:50:49.264Z,15.80
2022-10-16T03:53:16.269Z,15.80
2022-10-16T03:55:43.852Z,15.70
2022-10-16T03:58:11.327Z,15.70
2022-10-16T04:00:45.922Z,15.70
2022-10-16T04:03:13.034Z,15.70
2022-10-16T04:05:40.261Z,15.70
2022-10-16T04:08:07.213Z,15.70
2022-10-16T04:10:33.890Z,15.80
2022-10-16T04:13:00.574Z,15.80
2022-10-16T04:15:27.603Z,15.90
2022-10-16T04:17:54.368Z,15.90
2022-10-16T04:20:21.180Z,15.90
2022-10-16T04:22:48.285Z,15.90
2022-10-16T04:25:15.060Z,15.80
2022-10-16T04:27:45.176Z,15.80
2022-10-16T04:30:13.971Z,15.80
2022-10-16T04:32:41.027Z,15.80
2022-10-16T04:35:08.174Z,15.70
2022-10-16T04:37:34.950Z,15.70
2022-10-16T04:40:01.852Z,15.80
2022-10-16T04:42:28.705Z,15.80
2022-10-16T04:44:55.431Z,15.80
2022-10-16T04:47:22.180Z,15.80
2022-10-16T04:49:48.943Z,15.80
2022-10-16T04:52:15.978Z,15.90
2022-10-16T04:54:42.755Z,15.80
2022-10-16T04:57:09.494Z,15.80
2022-10-16T04:59:36.814Z,15.80
2022-10-16T05:02:03.749Z,15.70
2022-10-16T05:04:30.475Z,15.70
2022-10-16T05:06:57.183Z,15.70
2022-10-16T05:09:24.002Z,15.60
2022-10-16T05:11:50.839Z,15.60
2022-10-16T05:14:17.803Z,15.60
2022-10-16T05:16:44.869Z,15.60
2022-10-16T05:19:28.269Z,15.60
2022-10-16T05:21:55.491Z,15.60
2022-10-16T05:24:22.764Z,15.60
2022-10-16T05:26:49.685Z,15.60
2022-10-16T05:29:16.453Z,15.60
2022-10-16T05:31:43.164Z,15.60
2022-10-16T05:34:11.243Z,15.60
2022-10-16T05:36:37.979Z,15.60
2022-10-16T05:39:05.163Z,15.70
2022-10-16T05:41:32.818Z,15.70
2022-10-16T05:43:59.985Z,15.60
2022-10-16T05:46:26.753Z,15.60
2022-10-16T05:48:54.337Z,15.60
2022-10-16T05:51:21.074Z,15.70
2022-10-16T05:53:48.337Z,15.70
2022-10-16T05:56:15.221Z,15.70
2022-10-16T05:58:42.992Z,15.70
2022-10-16T06:01:15.598Z,15.70
2022-10-16T06:03:42.834Z,15.70
2022-10-16T06:06:12.337Z,15.70
2022-10-16T06:08:39.995Z,15.60
2022-10-16T06:11:10.097Z,15.70
2022-10-16T06:13:37.234Z,15.70
2022-10-16T06:16:05.749Z,15.70
2022-10-16T06:18:32.567Z,15.70
2022-10-16T06:20:59.993Z,15.70
2022-10-16T06:23:29.864Z,15.70
2022-10-16T06:26:12.637Z,15.70
2022-10-16T06:28:40.295Z,15.80
2022-10-16T06:31:08.958Z,15.70
2022-10-16T06:33:36.759Z,15.70
2022-10-16T06:36:12.538Z,15.70
2022-10-16T06:38:39.935Z,15.70
2022-10-16T06:41:08.525Z,15.70
2022-10-16T06:43:38.400Z,15.60
2022-10-16T06:46:08.852Z,15.60
2022-10-16T06:48:36.066Z,15.60
2022-10-16T06:51:14.680Z,15.60
2022-10-16T06:54:01.733Z,15.60
2022-10-16T06:56:30.623Z,15.60
2022-10-16T06:58:57.997Z,15.60
2022-10-16T07:01:25.869Z,15.60
2022-10-16T07:03:53.229Z,15.80
2022-10-16T07:06:22.539Z,15.90
2022-10-16T07:08:49.733Z,15.90
2022-10-16T07:11:18.961Z,16.00
2022-10-16T07:13:50.983Z,16.20
2022-10-16T07:16:23.498Z,16.20
2022-10-16T07:18:55.255Z,16.30
2022-10-16T07:21:23.716Z,16.30
2022-10-16T07:23:55.918Z,16.40
2022-10-16T07:26:24.450Z,16.40
2022-10-16T07:28:51.491Z,16.50
2022-10-16T07:31:20.300Z,16.60
2022-10-16T07:33:49.069Z,16.70
2022-10-16T07:36:17.323Z,16.90
2022-10-16T07:38:44.923Z,17.00
2022-10-16T07:41:19.435Z,17.00
2022-10-16T07:43:50.985Z,17.10
2022-10-16T07:46:17.997Z,17.10
2022-10-16T07:48:47.927Z,17.20
2022-10-16T07:51:19.930Z,17.30
2022-10-16T07:53:47.834Z,17.40
2022-10-16T07:56:15.070Z,17.50
2022-10-16T07:58:42.431Z,17.60
2022-10-16T08:01:12.150Z,17.70
2022-10-16T08:03:39.180Z,17.70
2022-10-16T08:06:06.239Z,17.90
2022-10-16T08:08:33.780Z,17.90
2022-10-16T08:11:00.519Z,17.90
2022-10-16T08:13:27.585Z,17.90
2022-10-16T08:15:55.630Z,17.90
2022-10-16T08:18:22.914Z,18.00
2022-10-16T08:20:59.758Z,18.00
2022-10-16T08:23:27.860Z,18.10
2022-10-16T08:26:05.049Z,18.20
2022-10-16T08:28:32.116Z,18.20
2022-10-16T08:31:13.508Z,18.20
2022-10-16T08:33:42.995Z,18.20
2022-10-16T08:36:11.686Z,18.20
2022-10-16T08:38:39.188Z,18.30
2022-10-16T08:41:33.526Z,18.30
2022-10-16T08:44:24.544Z,18.30
2022-10-16T08:47:01.645Z,18.30
2022-10-16T08:49:28.910Z,18.40
2022-10-16T08:51:58.129Z,18.40
2022-10-16T08:54:31.397Z,18.50
2022-10-16T08:57:08.377Z,18.50
2022-10-16T08:59:35.047Z,18.50
2022-10-16T09:02:02.684Z,18.40
2022-10-16T09:05:09.304Z,18.40
2022-10-16T09:07:50.554Z,18.40
2022-10-16T09:10:33.807Z,18.50
2022-10-16T09:13:18.346Z,18.50
2022-10-16T09:15:49.469Z,18.70
2022-10-16T09:18:28.683Z,18.70
2022-10-16T09:21:15.159Z,18.70
2022-10-16T09:23:42.316Z,18.70
2022-10-16T09:26:15.019Z,18.80
2022-10-16T09:28:42.363Z,18.90
2022-10-16T09:31:18.365Z,19.00
2022-10-16T09:33:47.973Z,18.90
2022-10-16T09:36:15.539Z,18.90
2022-10-16T09:38:42.772Z,18.80
2022-10-16T09:41:22.059Z,18.80
2022-10-16T09:44:02.753Z,18.90
2022-10-16T09:46:32.803Z,19.00
2022-10-16T09:49:02.043Z,19.20
2022-10-16T09:51:36.361Z,19.30
2022-10-16T09:54:13.476Z,19.50
2022-10-16T09:56:40.302Z,19.60
2022-10-16T09:59:18.601Z,19.80
2022-10-16T10:01:53.788Z,20.00
2022-10-16T10:04:22.017Z,19.90
2022-10-16T10:06:49.977Z,20.10
2022-10-16T10:09:18.791Z,20.10
2022-10-16T10:11:48.238Z,20.30
2022-10-16T10:14:20.009Z,20.50
2022-10-16T10:16:48.037Z,20.60
2022-10-16T10:19:22.182Z,20.70
2022-10-16T10:21:49.616Z,20.80
2022-10-16T10:24:18.685Z,20.80
2022-10-16T10:26:58.073Z,20.90
2022-10-16T10:29:36.784Z,20.90
2022-10-16T10:32:40.997Z,21.00
2022-10-16T10:35:41.053Z,21.10
2022-10-16T10:38:25.682Z,21.00
2022-10-16T10:41:11.375Z,20.80
2022-10-16T10:44:01.677Z,20.80
2022-10-16T10:47:16.603Z,20.70
2022-10-16T10:49:54.719Z,20.80
2022-10-16T10:52:40.248Z,20.70
2022-10-16T10:55:15.713Z,20.60
2022-10-16T10:58:08.961Z,20.60
2022-10-16T11:01:07.810Z,20.60
2022-10-16T11:03:58.142Z,20.50
2022-10-16T11:06:37.422Z,20.40
2022-10-16T11:09:26.717Z,20.40
2022-10-16T11:12:15.889Z,20.50
2022-10-16T11:15:19.673Z,20.60
2022-10-16T11:17:51.601Z,20.70
2022-10-16T11:20:23.891Z,20.70
2022-10-16T11:23:09.112Z,20.80
2022-10-16T11:25:35.941Z,20.90
2022-10-16T11:28:18.640Z,21.00
2022-10-16T11:31:04.977Z,21.10
2022-10-16T11:33:42.043Z,21.30
2022-10-16T11:36:27.729Z,21.30
2022-10-16T11:39:13.200Z,21.30
2022-10-16T11:41:50.892Z,21.20
2022-10-16T11:44:34.249Z,21.10
2022-10-16T11:47:33.734Z,21.10
2022-10-16T11:50:02.259Z,21.20
2022-10-16T11:52:43.074Z,21.20
2022-10-16T11:55:18.511Z,21.30
2022-10-16T11:57:51.507Z,21.40
2022-10-16T12:00:36.790Z,21.50
2022-10-16T12:03:29.986Z,21.70
2022-10-16T12:06:15.966Z,21.70
2022-10-16T12:08:44.485Z,21.80
2022-10-16T12:11:33.533Z,21.80
2022-10-16T12:14:12.759Z,21.80
2022-10-16T12:16:52.073Z,21.90
2022-10-16T12:19:19.408Z,22.00
2022-10-16T12:21:47.003Z,22.10
2022-10-16T12:24:41.964Z,22.00
2022-10-16T12:27:32.226Z,22.10
2022-10-16T12:30:02.017Z,22.30
2022-10-16T12:32:50.706Z,22.30
2022-10-16T12:35:22.524Z,22.40
2022-10-16T12:37:50.480Z,22.20
2022-10-16T12:40:31.827Z,22.40
2022-10-16T12:42:58.848Z,22.40
2022-10-16T12:45:30.115Z,22.60
2022-10-16T12:47:57.289Z,22.60
2022-10-16T12:50:26.746Z,22.50
2022-10-16T12:52:53.601Z,22.40
2022-10-16T12:55:23.066Z,22.30
2022-10-16T12:58:05.689Z,22.10
2022-10-16T13:00:50.050Z,21.90
2022-10-16T13:03:32.888Z,22.10
2022-10-16T13:06:20.300Z,22.20
2022-10-16T13:09:05.859Z,22.20
2022-10-16T13:12:10.183Z,22.20
2022-10-16T13:15:18.331Z,22.20
2022-10-16T13:18:03.703Z,22.30
2022-10-16T13:20:41.603Z,22.40
2022-10-16T13:23:08.307Z,22.40
2022-10-16T13:25:41.289Z,22.30
2022-10-16T13:28:10.794Z,22.10
2022-10-16T13:31:11.367Z,21.90
2022-10-16T13:33:41.699Z,21.80
2022-10-16T13:36:24.248Z,21.60
2022-10-16T13:39:07.141Z,21.50
2022-10-16T13:41:33.885Z,21.40
2022-10-16T13:44:00.623Z,21.20
2022-10-16T13:46:27.524Z,21.00
2022-10-16T13:48:59.488Z,20.90
2022-10-16T13:51:26.893Z,20.90
2022-10-16T13:53:55.699Z,20.90
2022-10-16T13:56:25.725Z,20.90
2022-10-16T13:59:07.541Z,20.90
2022-10-16T14:01:40.952Z,20.80
2022-10-16T14:04:10.165Z,20.80
2022-10-16T14:06:41.465Z,20.80
2022-10-16T14:09:14.456Z,20.80
2022-10-16T14:11:52.560Z,20.60
2022-10-16T14:14:20.849Z,20.70
2022-10-16T14:16:48.783Z,20.70
2022-10-16T14:19:28.904Z,20.60
2022-10-16T14:21:56.668Z,20.60
2022-10-16T14:24:30.530Z,20.40
2022-10-16T14:26:57.753Z,20.50
2022-10-16T14:29:27.339Z,20.40
2022-10-16T14:32:02.659Z,20.40
2022-10-16T14:34:32.654Z,20.40
2022-10-16T14:39:42.133Z,20.30
2022-10-16T14:42:20.415Z,20.20
2022-10-16T14:44:48.369Z,20.10
2022-10-16T14:47:17.851Z,20.10
2022-10-16T14:49:44.766Z,20.10
2022-10-16T14:52:13.314Z,20.00
2022-10-16T14:54:40.270Z,20.10
2022-10-16T14:57:18.660Z,20.10
2022-10-16T14:59:46.799Z,20.20
2022-10-16T15:02:23.250Z,20.30
2022-10-16T15:04:50.395Z,20.50
2022-10-16T15:07:17.289Z,20.60
2022-10-16T15:09:48.182Z,20.80
2022-10-16T15:12:16.986Z,20.80
2022-10-16T15:14:43.950Z,20.80
2022-10-16T15:17:11.877Z,20.80
2022-10-16T15:19:38.699Z,20.60
2022-10-16T15:22:05.411Z,20.50
2022-10-16T15:24:32.494Z,20.40
2022-10-16T15:26:59.223Z,20.30
2022-10-16T15:29:25.915Z,20.30
2022-10-16T15:31:52.661Z,20.20
2022-10-16T15:34:20.641Z,20.10
2022-10-16T15:36:47.462Z,20.10
2022-10-16T15:39:17.221Z,20.00
2022-10-16T15:41:44.539Z,19.90
2022-10-16T15:44:11.283Z,19.90
2022-10-16T15:46:38.223Z,19.80
2022-10-16T15:49:05.357Z,19.80
2022-10-16T15:51:34.074Z,19.80
2022-10-16T15:54:02.633Z,19.80
2022-10-16T15:56:31.505Z,19.70
2022-10-16T15:58:59.301Z,19.70
2022-10-16T16:01:26.627Z,19.70
2022-10-16T16:03:54.987Z,19.60
2022-10-16T16:06:23.120Z,19.60
2022-10-16T16:08:49.978Z,19.60
2022-10-16T16:11:18.253Z,19.50
2022-10-16T16:13:45.275Z,19.40
2022-10-16T16:16:15.404Z,19.20
2022-10-16T16:18:43.410Z,19.20
2022-10-16T16:21:13.181Z,19.00
2022-10-16T16:23:39.986Z,18.90
2022-10-16T16:26:27.193Z,18.90
2022-10-16T16:28:55.464Z,18.80
2022-10-16T16:31:27.724Z,18.70
2022-10-16T16:33:54.778Z,18.60
2022-10-16T16:36:21.720Z,18.60
2022-10-16T16:38:49.054Z,18.50
2022-10-16T16:41:26.134Z,18.50
2022-10-16T16:43:53.941Z,18.30
2022-10-16T16:46:21.689Z,18.20
2022-10-16T16:48:51.230Z,18.20
2022-10-16T16:51:20.533Z,18.10
2022-10-16T16:53:50.406Z,18.00
2022-10-16T16:56:18.005Z,18.00
2022-10-16T16:58:49.476Z,17.90
2022-10-16T17:01:19.834Z,17.70
2022-10-16T17:03:50.771Z,17.60
2022-10-16T17:06:20.662Z,17.60
2022-10-16T17:08:49.133Z,17.60
2022-10-16T17:11:21.664Z,17.60
2022-10-16T17:13:53.950Z,17.60
2022-10-16T17:16:29.868Z,17.60
2022-10-16T17:19:00.722Z,17.60
2022-10-16T17:21:30.417Z,17.50
2022-10-16T17:23:57.637Z,17.50
2022-10-16T17:26:24.962Z,17.50
2022-10-16T17:28:53.707Z,17.40
2022-10-16T17:31:25.710Z,17.30
2022-10-16T17:33:52.524Z,17.30
2022-10-16T17:36:21.265Z,17.20
2022-10-16T17:38:48.250Z,17.10
2022-10-16T17:41:18.035Z,16.90
2022-10-16T17:43:45.755Z,16.90
2022-10-16T17:46:15.281Z,16.90
2022-10-16T17:48:45.401Z,16.80
2022-10-16T17:51:14.452Z,16.80
2022-10-16T17:53:41.749Z,16.70
2022-10-16T17:56:12.696Z,16.70
2022-10-16T17:58:40.147Z,16.70
2022-10-16T18:01:18.870Z,16.70
2022-10-16T18:03:53.058Z,16.80
2022-10-16T18:06:23.104Z,16.70
2022-10-16T18:08:51.924Z,16.70
2022-10-16T18:11:20.328Z,16.80
2022-10-16T18:13:47.396Z,16.80
2022-10-16T18:16:15.580Z,16.80
2022-10-16T18:18:44.854Z,16.80
2022-10-16T18:21:13.917Z,16.70
2022-10-16T18:23:45.361Z,16.80
2022-10-16T18:26:17.030Z,16.70
2022-10-16T18:28:44.393Z,16.80
2022-10-16T18:31:14.374Z,16.80
2022-10-16T18:33:47.848Z,16.70
2022-10-16T18:36:15.820Z,16.70
2022-10-16T18:38:43.437Z,16.70
2022-10-16T18:41:10.496Z,16.70
2022-10-16T18:43:39.234Z,16.60
2022-10-16T18:46:13.095Z,16.60
2022-10-16T18:48:40.419Z,16.60
2022-10-16T18:51:20.082Z,16.70
2022-10-16T18:53:49.390Z,16.60
2022-10-16T18:56:18.506Z,16.60
2022-10-16T18:58:48.323Z,16.60
2022-10-16T19:01:20.842Z,16.60
2022-10-16T19:03:48.887Z,16.50
2022-10-16T19:06:16.733Z,16.50
2022-10-16T19:08:44.210Z,16.40
2022-10-16T19:11:13.939Z,16.50
2022-10-16T19:13:41.138Z,16.40
2022-10-16T19:16:22.722Z,16.40
2022-10-16T19:18:51.577Z,16.50
2022-10-16T19:21:19.254Z,16.40
2022-10-16T19:23:46.614Z,16.40
2022-10-16T19:26:15.961Z,16.40
2022-10-16T19:28:44.084Z,16.40
2022-10-16T19:31:14.230Z,16.30
2022-10-16T19:33:41.709Z,16.30
2022-10-16T19:36:19.795Z,16.30
2022-10-16T19:38:47.117Z,16.20
2022-10-16T19:41:18.788Z,16.10
2022-10-16T19:43:46.130Z,16.20
2022-10-16T19:46:18.832Z,16.20
2022-10-16T19:48:46.260Z,16.10
2022-10-16T19:51:18.546Z,16.10
2022-10-16T19:53:46.847Z,16.00
2022-10-16T19:56:19.195Z,16.00
2022-10-16T19:58:46.754Z,15.90
2022-10-16T20:01:18.017Z,15.80
2022-10-16T20:03:46.857Z,15.90
2022-10-16T20:06:14.609Z,15.90
2022-10-16T20:08:43.167Z,16.00
2022-10-16T20:11:16.159Z,15.90
2022-10-16T20:13:43.247Z,16.00
2022-10-16T20:16:11.996Z,16.10
2022-10-16T20:18:39.416Z,16.00
2022-10-16T20:21:11.137Z,16.10
2022-10-16T20:23:38.417Z,16.10
2022-10-16T20:26:05.554Z,16.10
2022-10-16T20:28:32.957Z,16.10
2022-10-16T20:31:05.779Z,16.10
2022-10-16T20:33:32.501Z,16.10
2022-10-16T20:35:59.170Z,16.10
2022-10-16T20:38:26.454Z,16.10
2022-10-16T20:40:53.263Z,16.20
2022-10-16T20:43:20.606Z,16.20
2022-10-16T20:45:47.312Z,16.20
2022-10-16T20:48:14.379Z,16.20
2022-10-16T20:50:41.850Z,16.20
2022-10-16T20:53:08.846Z,16.20
2022-10-16T20:55:38.569Z,16.30
2022-10-16T20:58:05.992Z,16.30
2022-10-16T21:00:33.065Z,16.40
2022-10-16T21:02:59.905Z,16.40
2022-10-16T21:05:31.406Z,16.40
2022-10-16T21:07:58.479Z,16.40
2022-10-16T21:10:25.197Z,16.40
2022-10-16T21:12:55.727Z,16.40
2022-10-16T21:15:22.595Z,16.40
2022-10-16T21:17:49.898Z,16.40
2022-10-16T21:20:17.147Z,16.40
2022-10-16T21:22:43.964Z,16.40
2022-10-16T21:25:10.910Z,16.40
2022-10-16T21:27:38.810Z,16.40
2022-10-16T21:30:07.737Z,16.40
2022-10-16T21:32:41.141Z,16.40
2022-10-16T21:35:08.624Z,16.40
2022-10-16T21:37:35.637Z,16.30
2022-10-16T21:40:02.704Z,16.40
2022-10-16T21:42:30.128Z,16.30
2022-10-16T21:44:57.237Z,16.30
2022-10-16T21:47:24.289Z,16.20
2022-10-16T21:49:51.555Z,16.20
2022-10-16T21:52:18.336Z,16.20
2022-10-16T21:54:45.350Z,16.20
2022-10-16T21:57:12.332Z,16.10
2022-10-16T21:59:39.147Z,16.10
2022-10-16T22:02:06.281Z,16.10
2022-10-16T22:04:33.189Z,16.10
2022-10-16T22:07:00.093Z,16.10
2022-10-16T22:09:27.095Z,16.10
2022-10-16T22:11:53.995Z,16.10
2022-10-16T22:14:22.068Z,16.10
2022-10-16T22:16:49.979Z,16.10
2022-10-16T22:19:20.104Z,16.10
2022-10-16T22:21:48.259Z,16.10
2022-10-16T22:24:16.175Z,16.10
2022-10-16T22:26:43.868Z,16.10
2022-10-16T22:29:13.055Z,16.10
2022-10-16T22:31:39.946Z,16.10
2022-10-16T22:34:07.182Z,16.10
2022-10-16T22:36:34.447Z,16.10
2022-10-16T22:39:01.505Z,16.00
2022-10-16T22:41:28.471Z,16.00
2022-10-16T22:43:55.270Z,16.00
2022-10-16T22:46:29.699Z,16.00
2022-10-16T22:48:59.749Z,15.90
2022-10-16T22:51:27.513Z,15.90
2022-10-16T22:53:54.646Z,15.90
2022-10-16T22:56:22.478Z,15.90
2022-10-16T22:58:49.962Z,15.80
2022-10-16T23:01:27.288Z,15.80
2022-10-16T23:03:54.195Z,15.80
2022-10-16T23:06:21.434Z,15.80
2022-10-16T23:08:56.365Z,15.70
2022-10-16T23:11:24.064Z,15.70
2022-10-16T23:13:51.221Z,15.70
2022-10-16T23:16:20.701Z,15.70
2022-10-16T23:18:49.466Z,15.60
2022-10-16T23:21:19.326Z,15.60
2022-10-16T23:23:46.602Z,15.50
2022-10-16T23:26:25.443Z,15.60
2022-10-16T23:28:53.118Z,15.50
2022-10-16T23:31:20.161Z,15.40
2022-10-16T23:33:47.135Z,15.50
2022-10-16T23:36:16.488Z,15.40
2022-10-16T23:38:43.995Z,15.30
2022-10-16T23:41:12.028Z,15.20
2022-10-16T23:43:39.005Z,15.10
2022-10-16T23:46:07.509Z,15.00
2022-10-16T23:48:34.468Z,15.00
2022-10-16T23:51:01.315Z,15.00
2022-10-16T23:53:28.245Z,15.10
2022-10-16T23:55:55.177Z,15.10
2022-10-16T23:58:22.280Z,15.00
